createdAt,value
2023-05-12T00:06:04.603Z,6.03
2023-05-12T00:21:08.721Z,5.57
2023-05-12T00:36:10.368Z,7.45
2023-05-12T00:51:12.042Z,8.98
2023-05-12T01:06:14.156Z,8.38
2023-05-12T01:21:15.835Z,10.80
2023-05-12T01:36:17.557Z,9.40
2023-05-12T01:51:20.035Z,7.47
2023-05-12T02:06:22.789Z,14.38
2023-05-12T02:21:25.191Z,9.90
2023-05-12T02:36:28.553Z,11.40
2023-05-12T02:51:30.256Z,12.20
2023-05-12T03:06:32.164Z,13.43
2023-05-12T03:21:33.804Z,12.25
2023-05-12T03:36:35.489Z,13.45
2023-05-12T03:51:37.268Z,13.80
2023-05-12T04:06:38.952Z,13.77
2023-05-12T04:21:40.928Z,13.88
2023-05-12T04:36:42.758Z,11.35
2023-05-12T04:51:44.791Z,9.63
2023-05-12T05:06:46.498Z,16.05
2023-05-12T05:21:49.812Z,27.63
2023-05-12T05:36:51.532Z,15.30
2023-05-12T05:51:53.422Z,12.95
2023-05-12T06:06:55.171Z,13.88
2023-05-12T06:21:56.970Z,13.40
2023-05-12T06:36:58.586Z,13.00
2023-05-12T06:52:00.186Z,9.23
2023-05-12T07:07:02.075Z,7.30
2023-05-12T07:22:03.781Z,6.95
2023-05-12T07:37:06.622Z,7.18
2023-05-12T07:52:08.244Z,8.35
2023-05-12T08:07:09.818Z,10.65
2023-05-12T08:22:11.406Z,10.02
2023-05-12T08:37:12.997Z,14.77
2023-05-12T08:52:14.617Z,16.45
2023-05-12T09:07:16.267Z,14.15
2023-05-12T09:22:19.948Z,11.43
2023-05-12T09:37:21.541Z,10.95
2023-05-12T09:52:23.222Z,10.95
2023-05-12T10:07:35.972Z,11.65
2023-05-12T10:22:40.045Z,10.15
2023-05-12T10:37:41.633Z,11.98
2023-05-12T10:52:43.218Z,13.88
2023-05-12T11:07:45.558Z,10.25
2023-05-12T11:22:47.480Z,10.88
2023-05-12T11:37:49.385Z,11.48
2023-05-12T11:52:51.739Z,10.93
2023-05-12T12:07:53.403Z,9.45
2023-05-12T12:22:55.158Z,8.00
2023-05-12T12:37:56.803Z,7.22
2023-05-12T12:52:58.404Z,8.35
2023-05-12T13:08:00.044Z,7.75
2023-05-12T13:23:01.646Z,7.32
2023-05-12T13:38:03.204Z,4.50
2023-05-12T13:53:05.405Z,4.18
2023-05-12T14:08:07.215Z,4.35
2023-05-12T14:23:08.779Z,4.00
2023-05-12T14:38:10.410Z,3.70
2023-05-12T14:53:12.220Z,3.83
2023-05-12T15:08:13.922Z,3.38
2023-05-12T15:23:15.565Z,4.35
2023-05-12T15:38:17.326Z,4.45
2023-05-12T15:53:19.067Z,7.00
2023-05-12T16:08:20.884Z,4.75
2023-05-12T16:23:22.446Z,5.00
2023-05-12T16:53:56.124Z,3.30
2023-05-12T17:08:57.706Z,2.72
2023-05-12T17:23:59.320Z,2.40
2023-05-12T17:39:00.946Z,2.13
2023-05-12T17:54:04.269Z,2.42
2023-05-12T18:09:06.994Z,2.08
2023-05-12T18:24:08.787Z,2.78
2023-05-12T18:39:10.794Z,2.55
2023-05-12T18:54:12.457Z,3.35
2023-05-12T19:09:14.087Z,3.30
2023-05-12T19:24:15.655Z,3.20
2023-05-12T19:39:18.273Z,3.35
2023-05-12T19:54:22.762Z,3.42
2023-05-12T20:09:27.993Z,4.65
2023-05-12T20:24:30.878Z,5.90
2023-05-12T20:39:32.546Z,6.60
2023-05-12T20:54:34.285Z,4.90
2023-05-12T21:09:35.892Z,4.25
2023-05-12T21:24:39.570Z,3.80
2023-05-12T21:39:41.168Z,3.90
2023-05-12T21:54:42.878Z,4.22
2023-05-12T22:09:45.014Z,4.85
2023-05-12T22:24:46.622Z,4.82
2023-05-12T22:39:48.212Z,4.30
2023-05-12T22:54:49.803Z,4.97
2023-05-12T23:09:51.382Z,5.97
2023-05-12T23:24:53.356Z,6.30
2023-05-12T23:39:55.082Z,6.57
2023-05-12T23:54:56.672Z,6.63
